Time;durP1;ratioP1;P1;durP2;ratioP2;P2;SDS_P1;SDS_P2;PMS_P1;PMS_P2;Temp;Humidity;BMP_temperature;BMP_pressure;BME280_temperature;BME280_humidity;BME280_pressure;Samples;Min_cycle;Max_cycle;Signal;HPM_P1;HPM_P2
2022/05/24 00:01:27;;;;;;;9.65;4.85;;;;;;;;;;5034337;28;20047;-81
2022/05/24 00:03:56;;;;;;;11.35;5.57;;;;;;;;;;5034414;28;20044;-83
2022/05/24 00:06:23;;;;;;;7.53;5.35;;;;;;;;;;5042247;28;20041;-82
2022/05/24 00:08:49;;;;;;;7.22;4.80;;;;;;;;;;5078054;28;20071;-88
2022/05/24 00:11:15;;;;;;;8.90;5.10;;;;;;;;;;5032944;28;20045;-83
2022/05/24 00:13:41;;;;;;;10.30;5.60;;;;;;;;;;5052444;28;20424;-81
2022/05/24 00:16:07;;;;;;;10.65;5.28;;;;;;;;;;5051130;28;20087;-89
2022/05/24 00:18:34;;;;;;;9.93;6.10;;;;;;;;;;5032962;28;20415;-86
2022/05/24 00:21:01;;;;;;;9.27;5.85;;;;;;;;;;5050564;28;20380;-86
2022/05/24 00:23:28;;;;;;;10.48;5.25;;;;;;;;;;5050314;28;20082;-89
2022/05/24 00:25:55;;;;;;;13.93;6.18;;;;;;;;;;5033802;28;20037;-88
2022/05/24 00:28:22;;;;;;;9.35;6.07;;;;;;;;;;5054762;28;20061;-84
2022/05/24 00:30:49;;;;;;;7.18;5.35;;;;;;;;;;5063607;28;20081;-81
2022/05/24 00:33:15;;;;;;;8.75;5.80;;;;;;;;;;5054093;28;20082;-86
2022/05/24 00:35:41;;;;;;;12.35;6.07;;;;;;;;;;5039235;28;20377;-88
2022/05/24 00:38:09;;;;;;;10.52;6.43;;;;;;;;;;5038295;28;20029;-84
2022/05/24 00:40:47;;;;;;;10.45;5.88;;;;;;;;;;5055928;28;20379;-92
2022/05/24 00:43:34;;;;;;;12.02;6.60;;;;;;;;;;5052908;28;20049;-85
2022/05/24 00:46:07;;;;;;;9.27;5.95;;;;;;;;;;5054011;28;20048;-85
2022/05/24 00:48:38;;;;;;;9.15;5.90;;;;;;;;;;5055657;28;20043;-82
2022/05/24 00:51:06;;;;;;;9.10;5.57;;;;;;;;;;5058270;28;20060;-86
2022/05/24 00:53:37;;;;;;;8.10;5.68;;;;;;;;;;5058074;28;20483;-84
2022/05/24 00:56:10;;;;;;;7.07;5.80;;;;;;;;;;5058418;28;20037;-81
2022/05/24 00:58:55;;;;;;;6.85;4.88;;;;;;;;;;5058771;28;20392;-85
2022/05/24 01:01:39;;;;;;;10.25;5.38;;;;;;;;;;5058699;28;20048;-87
2022/05/24 01:04:06;;;;;;;8.15;5.35;;;;;;;;;;5058190;28;20097;-85
2022/05/24 01:06:32;;;;;;;8.07;5.38;;;;;;;;;;5057654;28;20130;-86
2022/05/24 01:08:59;;;;;;;9.98;5.75;;;;;;;;;;5016524;28;20511;-89
2022/05/24 01:11:26;;;;;;;7.22;5.70;;;;;;;;;;5022421;28;20520;-91
2022/05/24 01:13:53;;;;;;;10.05;6.00;;;;;;;;;;5023041;28;20087;-88
2022/05/24 01:16:19;;;;;;;7.93;5.63;;;;;;;;;;5021848;28;20037;-86
2022/05/24 01:18:45;;;;;;;8.73;6.03;;;;;;;;;;5021689;28;20477;-88
2022/05/24 01:21:13;;;;;;;9.32;5.82;;;;;;;;;;5020594;28;20037;-86
2022/05/24 01:23:40;;;;;;;9.15;5.63;;;;;;;;;;5020652;28;20047;-87
2022/05/24 01:26:06;;;;;;;7.15;5.38;;;;;;;;;;5020871;28;20397;-87
2022/05/24 01:28:39;;;;;;;9.32;5.03;;;;;;;;;;5037044;28;20036;-89
2022/05/24 01:31:05;;;;;;;8.98;6.38;;;;;;;;;;5020631;28;20483;-89
2022/05/24 01:36:16;;;;;;;7.70;5.88;;;;;;;;;;5037071;28;20123;-91
2022/05/24 01:38:47;;;;;;;8.50;5.43;;;;;;;;;;5020634;28;20193;-88
2022/05/24 01:41:17;;;;;;;11.30;5.93;;;;;;;;;;5020385;28;20045;-86
2022/05/24 01:43:43;;;;;;;7.70;5.30;;;;;;;;;;5020772;28;20041;-90
2022/05/24 01:46:10;;;;;;;9.27;5.13;;;;;;;;;;5021122;28;20041;-86
2022/05/24 01:48:41;;;;;;;7.70;5.07;;;;;;;;;;5020447;28;20033;-93
2022/05/24 01:51:08;;;;;;;9.75;5.65;;;;;;;;;;5020878;28;20131;-90
2022/05/24 01:53:37;;;;;;;7.97;5.40;;;;;;;;;;5020566;28;20128;-85
2022/05/24 01:56:05;;;;;;;5.80;4.88;;;;;;;;;;5021956;28;20041;-89
2022/05/24 01:58:32;;;;;;;6.97;4.28;;;;;;;;;;5006219;28;20044;-92
2022/05/24 02:01:03;;;;;;;9.02;4.70;;;;;;;;;;5036666;28;20040;-86
2022/05/24 02:03:30;;;;;;;10.68;5.45;;;;;;;;;;5020437;28;20045;-88
2022/05/24 02:05:56;;;;;;;6.38;4.22;;;;;;;;;;5020126;28;20044;-93
2022/05/24 02:08:22;;;;;;;8.70;4.75;;;;;;;;;;5020523;28;20140;-87
2022/05/24 02:10:51;;;;;;;7.53;4.35;;;;;;;;;;5036657;28;20129;-90
2022/05/24 02:13:37;;;;;;;8.55;5.18;;;;;;;;;;5036180;28;20041;-89
2022/05/24 02:16:04;;;;;;;10.27;5.65;;;;;;;;;;5036792;28;20400;-88
2022/05/24 02:18:31;;;;;;;7.20;4.68;;;;;;;;;;5037257;28;20033;-90
2022/05/24 02:20:57;;;;;;;7.80;5.25;;;;;;;;;;5036576;28;20136;-87
2022/05/24 02:23:23;;;;;;;8.18;4.80;;;;;;;;;;5036848;28;20110;-89
2022/05/24 02:25:52;;;;;;;7.10;4.75;;;;;;;;;;5037429;28;20049;-88
2022/05/24 02:28:26;;;;;;;7.80;4.50;;;;;;;;;;5036438;28;20139;-88
2022/05/24 02:30:56;;;;;;;9.60;5.15;;;;;;;;;;5037698;28;20503;-86
2022/05/24 02:33:23;;;;;;;9.32;5.57;;;;;;;;;;5037080;28;20059;-87
2022/05/24 02:35:49;;;;;;;10.50;5.68;;;;;;;;;;5037309;28;20080;-85
2022/05/24 02:38:15;;;;;;;10.55;5.80;;;;;;;;;;5038298;28;20090;-90
2022/05/24 02:43:26;;;;;;;13.50;7.35;;;;;;;;;;5037364;28;20045;-91
2022/05/24 02:45:52;;;;;;;15.30;7.70;;;;;;;;;;5037623;28;20280;-91
2022/05/24 02:48:18;;;;;;;9.98;7.13;;;;;;;;;;5037720;28;20063;-90
2022/05/24 02:50:44;;;;;;;13.93;8.57;;;;;;;;;;5038246;28;20041;-88
2022/05/24 02:53:10;;;;;;;14.40;8.27;;;;;;;;;;5036998;28;20048;-89
2022/05/24 02:55:37;;;;;;;14.55;7.30;;;;;;;;;;5036948;28;20404;-88
2022/05/24 02:58:03;;;;;;;17.73;8.65;;;;;;;;;;5036880;28;20033;-90
2022/05/24 03:00:30;;;;;;;16.85;8.38;;;;;;;;;;5038069;28;20032;-88
2022/05/24 03:02:56;;;;;;;13.30;8.02;;;;;;;;;;5036685;28;20483;-89
2022/05/24 03:05:22;;;;;;;13.48;8.05;;;;;;;;;;5036638;28;20265;-94
2022/05/24 03:10:35;;;;;;;14.55;9.13;;;;;;;;;;5053806;28;20056;-88
2022/05/24 03:15:46;;;;;;;16.70;9.73;;;;;;;;;;5052889;28;20052;-90
2022/05/24 03:18:13;;;;;;;20.38;10.90;;;;;;;;;;5037383;28;20049;-89
2022/05/24 03:20:40;;;;;;;17.95;10.48;;;;;;;;;;5037989;28;20037;-91
2022/05/24 03:23:06;;;;;;;21.92;11.32;;;;;;;;;;5037884;28;20136;-90
2022/05/24 03:25:33;;;;;;;18.08;10.18;;;;;;;;;;5037114;28;20149;-86
2022/05/24 03:28:00;;;;;;;24.45;12.57;;;;;;;;;;5036216;28;20037;-90
2022/05/24 03:30:27;;;;;;;21.42;11.18;;;;;;;;;;5036982;28;20041;-88
2022/05/24 03:32:53;;;;;;;19.73;11.68;;;;;;;;;;5040330;28;20504;-86
2022/05/24 03:35:19;;;;;;;26.35;13.70;;;;;;;;;;5039285;28;20395;-89
2022/05/24 03:37:45;;;;;;;24.38;12.02;;;;;;;;;;5040143;28;20044;-90
2022/05/24 03:40:12;;;;;;;26.48;13.00;;;;;;;;;;5041314;28;20488;-90
2022/05/24 03:42:38;;;;;;;25.25;13.43;;;;;;;;;;5040754;28;20080;-88
2022/05/24 03:45:05;;;;;;;25.58;12.85;;;;;;;;;;5039988;28;20454;-86
2022/05/24 03:47:31;;;;;;;27.05;13.57;;;;;;;;;;5023843;28;20480;-90
2022/05/24 03:49:57;;;;;;;29.90;14.13;;;;;;;;;;5039683;28;20032;-89
2022/05/24 03:52:23;;;;;;;27.98;13.90;;;;;;;;;;5039247;28;20091;-88
2022/05/24 03:54:49;;;;;;;30.98;14.75;;;;;;;;;;5039547;28;20048;-85
2022/05/24 04:00:00;;;;;;;34.00;15.70;;;;;;;;;;5055547;28;20041;-91
2022/05/24 04:02:26;;;;;;;30.75;16.35;;;;;;;;;;5038826;28;20060;-85
2022/05/24 04:04:52;;;;;;;31.50;16.67;;;;;;;;;;5039316;28;20040;-92
2022/05/24 04:07:18;;;;;;;28.73;15.27;;;;;;;;;;5039024;28;20377;-86
2022/05/24 04:09:45;;;;;;;28.50;16.30;;;;;;;;;;5038959;28;20056;-88
2022/05/24 04:12:11;;;;;;;29.88;16.02;;;;;;;;;;5038895;28;20133;-92
2022/05/24 04:14:37;;;;;;;31.73;17.27;;;;;;;;;;5038782;28;20380;-88
2022/05/24 04:17:03;;;;;;;32.05;16.23;;;;;;;;;;5038932;28;20043;-91
2022/05/24 04:19:29;;;;;;;34.10;17.23;;;;;;;;;;5038791;28;20047;-90
2022/05/24 04:21:55;;;;;;;27.60;15.35;;;;;;;;;;5039108;28;20040;-89
2022/05/24 04:24:21;;;;;;;31.50;16.05;;;;;;;;;;5039048;28;20040;-90
2022/05/24 04:26:47;;;;;;;30.33;15.45;;;;;;;;;;5038450;28;20047;-89
2022/05/24 04:29:13;;;;;;;30.38;16.02;;;;;;;;;;5055292;28;20127;-87
2022/05/24 04:31:41;;;;;;;27.45;14.20;;;;;;;;;;5038527;28;20055;-86
2022/05/24 04:34:07;;;;;;;28.77;15.15;;;;;;;;;;5055260;28;20151;-90
2022/05/24 04:36:33;;;;;;;24.33;14.25;;;;;;;;;;5038867;28;20068;-86
2022/05/24 04:38:59;;;;;;;27.02;14.38;;;;;;;;;;5038069;28;20036;-88
2022/05/24 04:44:10;;;;;;;26.98;13.98;;;;;;;;;;5054954;28;20076;-85
2022/05/24 04:49:22;;;;;;;26.33;13.77;;;;;;;;;;5054964;28;20045;-87
2022/05/24 04:51:48;;;;;;;23.45;12.98;;;;;;;;;;5038188;28;20056;-91
2022/05/24 04:54:14;;;;;;;25.48;13.38;;;;;;;;;;5038352;28;20399;-85
2022/05/24 04:56:40;;;;;;;25.90;13.45;;;;;;;;;;5037978;28;20079;-83
2022/05/24 04:59:06;;;;;;;24.80;14.63;;;;;;;;;;5037793;28;20496;-89
2022/05/24 05:01:32;;;;;;;23.95;12.65;;;;;;;;;;5038198;28;20745;-87
2022/05/24 05:03:59;;;;;;;23.27;13.07;;;;;;;;;;5037785;28;20041;-88
2022/05/24 05:06:25;;;;;;;23.27;12.68;;;;;;;;;;5037931;28;20044;-90
2022/05/24 05:08:51;;;;;;;22.58;12.55;;;;;;;;;;5037651;28;20057;-89
2022/05/24 05:11:17;;;;;;;21.05;11.88;;;;;;;;;;5037850;28;20048;-91
2022/05/24 05:13:43;;;;;;;23.40;13.13;;;;;;;;;;5041986;28;20513;-93
2022/05/24 05:16:09;;;;;;;19.73;12.10;;;;;;;;;;5042440;28;20396;-88
2022/05/24 05:18:35;;;;;;;23.38;12.90;;;;;;;;;;5041883;28;20036;-87
2022/05/24 05:21:02;;;;;;;24.67;12.57;;;;;;;;;;5042348;28;20036;-87
2022/05/24 05:23:28;;;;;;;20.80;12.90;;;;;;;;;;5042466;28;20036;-87
2022/05/24 05:25:54;;;;;;;21.67;12.75;;;;;;;;;;5042453;28;20046;-90
2022/05/24 05:28:20;;;;;;;22.88;12.15;;;;;;;;;;5041771;28;20130;-91
2022/05/24 05:33:33;;;;;;;23.25;13.80;;;;;;;;;;5057876;28;20504;-89
2022/05/24 05:35:59;;;;;;;27.83;13.63;;;;;;;;;;5057586;28;20044;-88
2022/05/24 05:38:26;;;;;;;25.42;13.43;;;;;;;;;;5041606;28;20033;-89
2022/05/24 05:40:53;;;;;;;25.52;15.55;;;;;;;;;;5057912;28;20051;-81
2022/05/24 05:43:19;;;;;;;30.02;14.75;;;;;;;;;;5041619;28;20055;-88
2022/05/24 05:45:57;;;;;;;25.35;14.35;;;;;;;;;;5057663;28;20044;-86
2022/05/24 05:48:24;;;;;;;26.83;14.40;;;;;;;;;;5067855;28;20400;-90
2022/05/24 05:50:50;;;;;;;29.70;14.77;;;;;;;;;;5040883;28;20043;-90
2022/05/24 05:53:16;;;;;;;29.58;14.90;;;;;;;;;;5067040;28;20036;-84
2022/05/24 05:55:43;;;;;;;30.40;13.85;;;;;;;;;;5062478;28;20052;-86
2022/05/24 05:58:09;;;;;;;27.85;15.25;;;;;;;;;;5045863;28;20123;-84
2022/05/24 06:00:36;;;;;;;27.08;14.45;;;;;;;;;;5062303;28;20047;-91
2022/05/24 06:03:01;;;;;;;28.55;14.45;;;;;;;;;;5061054;28;20040;-89
2022/05/24 06:05:27;;;;;;;26.20;13.48;;;;;;;;;;5077389;28;20500;-88
2022/05/24 06:07:57;;;;;;;27.30;13.90;;;;;;;;;;5060674;28;20445;-85
2022/05/24 06:10:24;;;;;;;27.50;13.57;;;;;;;;;;5060495;28;20082;-89
2022/05/24 06:12:51;;;;;;;26.95;13.50;;;;;;;;;;5060356;28;20083;-85
2022/05/24 06:15:20;;;;;;;29.52;13.40;;;;;;;;;;5057588;28;20131;-87
2022/05/24 06:17:48;;;;;;;24.60;12.90;;;;;;;;;;5057481;28;20043;-88
2022/05/24 06:20:14;;;;;;;19.65;11.88;;;;;;;;;;5057335;28;20433;-90
2022/05/24 06:22:40;;;;;;;21.75;11.82;;;;;;;;;;5057627;28;20403;-86
2022/05/24 06:25:06;;;;;;;21.88;11.55;;;;;;;;;;5055869;28;20138;-88
2022/05/24 06:27:32;;;;;;;20.95;11.52;;;;;;;;;;5056757;28;20051;-88
2022/05/24 06:29:58;;;;;;;21.23;11.60;;;;;;;;;;5056751;28;20509;-89
2022/05/24 06:32:24;;;;;;;19.38;10.88;;;;;;;;;;5056220;28;20487;-85
2022/05/24 06:34:52;;;;;;;18.00;10.35;;;;;;;;;;5056318;28;20116;-84
2022/05/24 06:37:18;;;;;;;19.35;10.75;;;;;;;;;;5073449;28;20079;-86
2022/05/24 06:39:45;;;;;;;23.88;9.77;;;;;;;;;;5056374;28;20513;-86
2022/05/24 06:42:11;;;;;;;17.40;9.90;;;;;;;;;;5056123;28;20498;-90
2022/05/24 06:44:37;;;;;;;19.95;10.30;;;;;;;;;;5056171;28;20040;-81
2022/05/24 06:47:03;;;;;;;25.20;10.43;;;;;;;;;;5059086;28;20055;-86
2022/05/24 06:49:29;;;;;;;16.70;9.68;;;;;;;;;;5059848;28;20109;-87
2022/05/24 06:51:55;;;;;;;21.63;11.07;;;;;;;;;;5059423;28;20512;-86
2022/05/24 06:54:21;;;;;;;18.55;11.07;;;;;;;;;;5059410;28;20040;-84
2022/05/24 06:56:47;;;;;;;14.80;10.07;;;;;;;;;;5059419;28;20394;-88
2022/05/24 07:04:42;;;;;;;19.15;10.43;;;;;;;;;;5075595;28;20534;-87
2022/05/24 07:07:08;;;;;;;16.05;9.30;;;;;;;;;;5059170;28;20125;-85
2022/05/24 07:09:34;;;;;;;16.23;9.55;;;;;;;;;;5058748;28;20056;-88
2022/05/24 07:12:02;;;;;;;15.60;8.98;;;;;;;;;;5075189;28;20043;-88
2022/05/24 07:14:30;;;;;;;20.83;9.45;;;;;;;;;;5059389;28;20044;-86
2022/05/24 07:16:56;;;;;;;15.10;8.95;;;;;;;;;;5075499;28;20093;-86
2022/05/24 07:19:23;;;;;;;17.02;10.65;;;;;;;;;;5058732;28;20387;-86
2022/05/24 07:21:49;;;;;;;16.33;9.80;;;;;;;;;;5058530;28;20100;-91
2022/05/24 07:24:15;;;;;;;16.77;9.02;;;;;;;;;;5058345;28;20040;-85
2022/05/24 07:26:42;;;;;;;13.85;8.43;;;;;;;;;;5058503;28;20040;-89
2022/05/24 07:29:08;;;;;;;18.17;9.32;;;;;;;;;;5058766;28;20476;-84
2022/05/24 07:31:34;;;;;;;11.75;8.68;;;;;;;;;;5074758;28;20074;-85
2022/05/24 07:34:01;;;;;;;14.38;8.40;;;;;;;;;;5058029;28;20097;-84
2022/05/24 07:36:27;;;;;;;15.90;9.95;;;;;;;;;;5058158;28;20040;-85
2022/05/24 07:38:53;;;;;;;12.85;8.07;;;;;;;;;;5074491;28;20036;-87
2022/05/24 07:46:49;;;;;;;16.48;9.07;;;;;;;;;;5068953;28;20044;-84
2022/05/24 07:49:15;;;;;;;15.93;9.25;;;;;;;;;;5036515;28;20037;-87
2022/05/24 07:51:41;;;;;;;15.90;8.60;;;;;;;;;;5021483;28;20052;-82
2022/05/24 07:54:08;;;;;;;14.95;8.52;;;;;;;;;;5054140;28;20032;-84
2022/05/24 07:56:34;;;;;;;16.48;8.90;;;;;;;;;;5053989;28;20170;-85
2022/05/24 07:59:00;;;;;;;13.48;8.30;;;;;;;;;;5068040;28;20040;-86
2022/05/24 08:01:27;;;;;;;15.68;8.48;;;;;;;;;;5038765;28;20111;-85
2022/05/24 08:03:53;;;;;;;12.20;8.07;;;;;;;;;;5038475;28;20040;-87
2022/05/24 08:06:19;;;;;;;16.55;8.27;;;;;;;;;;5038303;28;20036;-85
2022/05/24 08:08:45;;;;;;;12.05;7.50;;;;;;;;;;5038398;28;20056;-84
2022/05/24 08:11:11;;;;;;;15.52;7.95;;;;;;;;;;5037949;28;20441;-89
2022/05/24 08:13:37;;;;;;;17.17;8.60;;;;;;;;;;5038140;28;20044;-86
2022/05/24 08:16:04;;;;;;;12.00;8.07;;;;;;;;;;5038736;28;20086;-88
2022/05/24 08:18:31;;;;;;;16.30;7.85;;;;;;;;;;5038739;28;20048;-84
2022/05/24 08:20:57;;;;;;;15.55;8.25;;;;;;;;;;5038790;28;20047;-83
2022/05/24 08:23:24;;;;;;;12.27;7.80;;;;;;;;;;5039016;28;20052;-87
2022/05/24 08:25:50;;;;;;;11.57;7.82;;;;;;;;;;5039077;28;20052;-87
2022/05/24 08:28:17;;;;;;;16.55;8.82;;;;;;;;;;5038972;28;20040;-88
2022/05/24 08:30:43;;;;;;;17.35;9.82;;;;;;;;;;5038870;28;20416;-82
2022/05/24 08:33:11;;;;;;;15.88;8.70;;;;;;;;;;5038996;28;20102;-86
2022/05/24 08:35:37;;;;;;;15.32;8.52;;;;;;;;;;5055673;28;20476;-85
2022/05/24 08:38:04;;;;;;;16.63;8.85;;;;;;;;;;5038804;28;20048;-87
2022/05/24 08:40:31;;;;;;;13.70;8.45;;;;;;;;;;5038963;28;20123;-85
2022/05/24 08:43:16;;;;;;;12.60;7.78;;;;;;;;;;5038959;28;20048;-85
2022/05/24 08:48:44;;;;;;;12.27;6.82;;;;;;;;;;5058647;28;20145;-86
2022/05/24 08:51:10;;;;;;;;;;;;;;;;;;5042850;28;20044;-86
2022/05/24 08:53:42;;;;;;;11.15;8.02;;;;;;;;;;5042193;28;19920;-85
2022/05/24 08:56:09;;;;;;;11.13;7.13;;;;;;;;;;5042379;28;20127;-85
2022/05/24 08:58:42;;;;;;;12.68;6.72;;;;;;;;;;5042248;28;20376;-84
2022/05/24 09:01:32;;;;;;;14.05;8.13;;;;;;;;;;5042259;28;20048;-88
2022/05/24 09:03:58;;;;;;;13.02;7.28;;;;;;;;;;5042636;28;20491;-83
2022/05/24 09:06:33;;;;;;;10.85;7.00;;;;;;;;;;5042391;28;20502;-86
2022/05/24 09:09:13;;;;;;;13.45;7.53;;;;;;;;;;5041690;28;20049;-88
2022/05/24 09:11:46;;;;;;;11.68;7.28;;;;;;;;;;5041761;28;20051;-87
2022/05/24 09:14:24;;;;;;;10.82;7.22;;;;;;;;;;5040292;28;20080;-82
2022/05/24 09:17:09;;;;;;;8.02;5.93;;;;;;;;;;5074080;28;20032;-86
2022/05/24 09:19:36;;;;;;;7.90;5.82;;;;;;;;;;5040141;28;20548;-83
2022/05/24 09:22:03;;;;;;;7.82;6.05;;;;;;;;;;5040218;28;20102;-86
2022/05/24 09:24:47;;;;;;;10.55;5.88;;;;;;;;;;5040757;28;20075;-88
2022/05/24 09:27:17;;;;;;;7.45;4.78;;;;;;;;;;5073381;28;20040;-81
2022/05/24 09:29:52;;;;;;;5.63;4.90;;;;;;;;;;5040482;28;20181;-83
2022/05/24 09:32:19;;;;;;;7.50;4.82;;;;;;;;;;5040550;28;20066;-84
2022/05/24 09:34:45;;;;;;;7.18;5.60;;;;;;;;;;5056709;28;20032;-87
2022/05/24 09:37:23;;;;;;;5.97;4.65;;;;;;;;;;5040589;28;20521;-84
2022/05/24 09:40:00;;;;;;;5.82;4.35;;;;;;;;;;5040769;28;20625;-87
2022/05/24 09:42:28;;;;;;;7.93;5.07;;;;;;;;;;5040088;28;20041;-85
2022/05/24 09:44:59;;;;;;;5.53;4.82;;;;;;;;;;5040107;28;20112;-86
2022/05/24 09:47:35;;;;;;;7.05;4.57;;;;;;;;;;5040236;28;20467;-86
2022/05/24 09:50:16;;;;;;;4.88;4.35;;;;;;;;;;5056286;28;20040;-87
2022/05/24 09:53:02;;;;;;;6.43;3.60;;;;;;;;;;5039510;28;20419;-84
2022/05/24 09:55:47;;;;;;;6.15;4.15;;;;;;;;;;5049911;28;20098;-84
2022/05/24 09:58:16;;;;;;;4.30;3.70;;;;;;;;;;5039369;28;20071;-86
2022/05/24 10:01:08;;;;;;;5.68;4.68;;;;;;;;;;5039321;28;20388;-84
2022/05/24 10:03:36;;;;;;;1.73;1.52;;;;;;;;;;5054259;28;20048;-85
2022/05/24 10:06:14;;;;;;;6.60;3.85;;;;;;;;;;5039245;28;20076;-83
2022/05/24 10:08:43;;;;;;;4.22;3.47;;;;;;;;;;5055652;28;20472;-84
2022/05/24 10:11:16;;;;;;;5.07;3.13;;;;;;;;;;5039484;28;20029;-83
2022/05/24 10:13:56;;;;;;;5.30;2.95;;;;;;;;;;5039206;28;20098;-87
2022/05/24 10:16:22;;;;;;;;;;;;;;;;;;5056640;28;20044;-84
2022/05/24 10:18:55;;;;;;;4.45;3.00;;;;;;;;;;5039326;28;19916;-84
2022/05/24 10:21:32;;;;;;;4.63;2.95;;;;;;;;;;5039149;28;20037;-85
2022/05/24 10:24:04;;;;;;;5.05;3.33;;;;;;;;;;5056316;28;20040;-86
2022/05/24 10:26:41;;;;;;;4.50;2.95;;;;;;;;;;5039021;28;20048;-84
2022/05/24 10:29:22;;;;;;;6.05;3.67;;;;;;;;;;5072420;28;20102;-85
2022/05/24 10:31:54;;;;;;;4.28;3.17;;;;;;;;;;5055429;28;20037;-82
2022/05/24 10:39:58;;;;;;;4.60;3.08;;;;;;;;;;5055169;28;20094;-83
2022/05/24 10:42:27;;;;;;;4.13;3.72;;;;;;;;;;5038605;28;20041;-82
2022/05/24 10:45:02;;;;;;;6.25;4.22;;;;;;;;;;5038536;28;20094;-84
2022/05/24 10:47:34;;;;;;;3.85;1.90;;;;;;;;;;5038790;28;20043;-86
2022/05/24 10:50:02;;;;;;;4.80;1.42;;;;;;;;;;5055396;28;20050;-87
2022/05/24 10:52:55;;;;;;;1.02;0.80;;;;;;;;;;5039001;28;20094;-85
2022/05/24 10:55:21;;;;;;;0.98;0.43;;;;;;;;;;5053463;28;20060;-84
2022/05/24 10:57:54;;;;;;;3.22;1.42;;;;;;;;;;5072517;28;20066;-88
2022/05/24 11:00:27;;;;;;;2.13;0.70;;;;;;;;;;5038708;28;20033;-82
2022/05/24 11:02:53;;;;;;;1.45;0.77;;;;;;;;;;5038283;28;20052;-83
2022/05/24 11:05:19;;;;;;;1.45;0.95;;;;;;;;;;5038479;28;20097;-86
2022/05/24 11:07:47;;;;;;;1.60;0.90;;;;;;;;;;5038472;28;20400;-84
2022/05/24 11:10:13;;;;;;;2.03;0.90;;;;;;;;;;5037696;28;20056;-83
2022/05/24 11:12:42;;;;;;;0.88;0.80;;;;;;;;;;5055313;28;20059;-84
2022/05/24 11:15:23;;;;;;;1.00;0.88;;;;;;;;;;5054782;28;20078;-81
2022/05/24 11:17:51;;;;;;;2.88;0.95;;;;;;;;;;5054978;28;20041;-85
2022/05/24 11:20:22;;;;;;;2.97;0.90;;;;;;;;;;5038382;28;20127;-85
2022/05/24 11:23:02;;;;;;;1.10;1.00;;;;;;;;;;5054657;28;20049;-87
2022/05/24 11:25:30;;;;;;;2.40;1.52;;;;;;;;;;5071420;28;20178;-87
2022/05/24 11:28:05;;;;;;;1.83;1.35;;;;;;;;;;5037927;28;20074;-83
2022/05/24 11:30:31;;;;;;;2.85;1.15;;;;;;;;;;5037754;28;20048;-85
2022/05/24 11:33:05;;;;;;;1.23;1.10;;;;;;;;;;5037442;28;20047;-90
2022/05/24 11:35:36;;;;;;;1.52;1.40;;;;;;;;;;5037910;28;20550;-84
2022/05/24 11:38:25;;;;;;;2.15;1.58;;;;;;;;;;5054687;28;20177;-83
2022/05/24 11:41:07;;;;;;;1.70;1.33;;;;;;;;;;5032551;28;20044;-81
2022/05/24 11:43:36;;;;;;;2.08;1.70;;;;;;;;;;5037875;28;20041;-83
2022/05/24 11:46:10;;;;;;;2.63;1.95;;;;;;;;;;5037530;28;20047;-83
2022/05/24 11:48:39;;;;;;;4.93;2.20;;;;;;;;;;5054283;28;20093;-84
2022/05/24 11:51:24;;;;;;;3.17;1.92;;;;;;;;;;5038270;28;20041;-83
2022/05/24 11:53:50;;;;;;;2.83;1.90;;;;;;;;;;5054039;28;20037;-85
2022/05/24 11:56:21;;;;;;;3.33;2.20;;;;;;;;;;5070344;28;20048;-82
2022/05/24 11:58:48;;;;;;;4.70;2.00;;;;;;;;;;5070987;28;20040;-85
2022/05/24 12:01:19;;;;;;;3.40;1.80;;;;;;;;;;5053925;28;20040;-83
2022/05/24 12:09:59;;;;;;;5.10;2.10;;;;;;;;;;5053565;28;20503;-82
2022/05/24 12:12:54;;;;;;;1.83;1.60;;;;;;;;;;5053771;28;20131;-84
2022/05/24 12:15:21;;;;;;;2.67;1.50;;;;;;;;;;5018373;28;20048;-84
2022/05/24 12:17:51;;;;;;;3.95;1.60;;;;;;;;;;5037266;28;20040;-83
2022/05/24 12:20:50;;;;;;;2.93;1.50;;;;;;;;;;5037400;28;20487;-82
2022/05/24 12:23:16;;;;;;;2.00;1.30;;;;;;;;;;5053053;28;20287;-84
2022/05/24 12:25:59;;;;;;;1.90;1.80;;;;;;;;;;5037368;28;20403;-84
2022/05/24 12:28:27;;;;;;;2.08;1.30;;;;;;;;;;5036836;28;20072;-81
2022/05/24 12:30:55;;;;;;;1.88;1.40;;;;;;;;;;5053528;28;20441;-84
2022/05/24 12:33:26;;;;;;;1.60;1.50;;;;;;;;;;5037069;28;20040;-82
2022/05/24 12:35:54;;;;;;;2.13;1.67;;;;;;;;;;5070823;28;20048;-85
2022/05/24 12:38:22;;;;;;;2.50;1.48;;;;;;;;;;5036988;28;20032;-80
2022/05/24 12:40:49;;;;;;;3.10;1.40;;;;;;;;;;5037017;28;20036;-85
2022/05/24 12:43:17;;;;;;;2.05;1.70;;;;;;;;;;5037517;28;20131;-83
2022/05/24 12:45:47;;;;;;;1.92;1.20;;;;;;;;;;5069939;28;20076;-81
2022/05/24 12:48:40;;;;;;;2.13;1.92;;;;;;;;;;5070539;28;20055;-82
2022/05/24 12:51:11;;;;;;;2.17;1.00;;;;;;;;;;5035935;28;20044;-83
2022/05/24 12:53:38;;;;;;;3.80;1.23;;;;;;;;;;5053659;28;20488;-85
2022/05/24 12:56:08;;;;;;;3.40;0.93;;;;;;;;;;5053851;28;20527;-86
2022/05/24 12:58:34;;;;;;;;;;;;;;;;;;5037292;28;20087;-80
2022/05/24 13:01:19;;;;;;;1.20;0.90;;;;;;;;;;5053552;28;19989;-86
2022/05/24 13:03:58;;;;;;;2.28;1.10;;;;;;;;;;5037136;28;20048;-82
2022/05/24 13:06:32;;;;;;;1.05;0.80;;;;;;;;;;5037102;28;20484;-85
2022/05/24 13:09:18;;;;;;;3.00;0.82;;;;;;;;;;5071147;28;20086;-87
2022/05/24 13:11:46;;;;;;;1.67;0.93;;;;;;;;;;5037353;28;20123;-86
2022/05/24 13:14:16;;;;;;;1.45;0.75;;;;;;;;;;5070531;28;20040;-84
2022/05/24 13:16:42;;;;;;;1.23;0.77;;;;;;;;;;5071094;28;20102;-84
2022/05/24 13:19:10;;;;;;;2.55;0.80;;;;;;;;;;5054447;28;20047;-82
2022/05/24 13:21:36;;;;;;;2.35;0.80;;;;;;;;;;5036850;28;20094;-85
2022/05/24 13:24:10;;;;;;;2.97;1.02;;;;;;;;;;5036947;28;20045;-86
2022/05/24 13:26:37;;;;;;;1.50;1.40;;;;;;;;;;5053094;28;20131;-82
2022/05/24 13:29:29;;;;;;;2.05;1.15;;;;;;;;;;5037252;28;20032;-86
2022/05/24 13:35:07;;;;;;;3.80;1.40;;;;;;;;;;5015994;28;20088;-84
2022/05/24 13:37:50;;;;;;;2.22;1.25;;;;;;;;;;5049517;28;20044;-86
2022/05/24 13:40:17;;;;;;;2.25;1.00;;;;;;;;;;5040141;28;20040;-83
2022/05/24 13:42:54;;;;;;;1.88;1.20;;;;;;;;;;5073926;28;20044;-84
2022/05/24 13:45:21;;;;;;;1.75;1.20;;;;;;;;;;5040644;28;20045;-86
2022/05/24 13:47:47;;;;;;;1.58;1.20;;;;;;;;;;5056859;28;20507;-86
2022/05/24 13:50:16;;;;;;;1.50;1.33;;;;;;;;;;5040347;28;20044;-85
2022/05/24 13:53:01;;;;;;;3.65;1.25;;;;;;;;;;5040105;28;20044;-86
2022/05/24 13:55:29;;;;;;;2.00;1.30;;;;;;;;;;5073060;28;20178;-85
2022/05/24 13:58:00;;;;;;;1.80;1.60;;;;;;;;;;5039930;28;20033;-81
2022/05/24 14:00:35;;;;;;;1.50;1.00;;;;;;;;;;5040009;28;20491;-82
2022/05/24 14:03:09;;;;;;;1.55;1.10;;;;;;;;;;5040095;28;20475;-84
2022/05/24 14:05:36;;;;;;;1.38;1.15;;;;;;;;;;5072586;28;20040;-87
2022/05/24 14:08:03;;;;;;;2.85;1.52;;;;;;;;;;5072697;28;20048;-83
2022/05/24 14:10:30;;;;;;;1.45;1.35;;;;;;;;;;5072884;28;20400;-82
2022/05/24 14:12:56;;;;;;;3.10;1.75;;;;;;;;;;5039676;28;20365;-89
2022/05/24 14:15:22;;;;;;;1.58;1.48;;;;;;;;;;5040177;28;20037;-84
2022/05/24 14:17:50;;;;;;;3.47;1.30;;;;;;;;;;5039308;28;20143;-87
2022/05/24 14:20:16;;;;;;;1.55;1.40;;;;;;;;;;5039701;28;20106;-83
2022/05/24 14:22:42;;;;;;;1.85;1.70;;;;;;;;;;5039624;28;20098;-85
2022/05/24 14:25:08;;;;;;;3.50;1.90;;;;;;;;;;5039975;28;20475;-85
2022/05/24 14:27:37;;;;;;;6.38;2.88;;;;;;;;;;5039995;28;20085;-84
2022/05/24 14:30:04;;;;;;;4.38;2.30;;;;;;;;;;5039831;28;20082;-82
2022/05/24 14:32:31;;;;;;;4.20;2.50;;;;;;;;;;5039930;28;20446;-88
2022/05/24 14:34:57;;;;;;;3.53;2.42;;;;;;;;;;5039688;28;20444;-84
2022/05/24 14:37:23;;;;;;;4.55;3.00;;;;;;;;;;5039868;28;20068;-87
2022/05/24 14:39:50;;;;;;;4.50;3.03;;;;;;;;;;5039413;28;20037;-84
2022/05/24 14:42:16;;;;;;;5.30;3.00;;;;;;;;;;5039500;28;20041;-86
2022/05/24 14:44:42;;;;;;;4.88;3.08;;;;;;;;;;5038869;28;20052;-85
2022/05/24 14:47:08;;;;;;;5.32;3.65;;;;;;;;;;5039261;28;20063;-83
2022/05/24 14:49:34;;;;;;;6.72;4.15;;;;;;;;;;5039137;28;20253;-87
2022/05/24 14:52:02;;;;;;;5.57;3.60;;;;;;;;;;5039082;28;20036;-86
2022/05/24 14:54:29;;;;;;;5.03;2.85;;;;;;;;;;5039119;28;20032;-84
2022/05/24 14:56:56;;;;;;;5.50;3.08;;;;;;;;;;5072051;28;20036;-82
2022/05/24 14:59:25;;;;;;;5.40;2.83;;;;;;;;;;5072145;28;20046;-82
2022/05/24 15:01:52;;;;;;;4.55;3.15;;;;;;;;;;5072007;28;20087;-83
2022/05/24 15:04:18;;;;;;;6.45;2.67;;;;;;;;;;5038389;28;20411;-82
2022/05/24 15:06:45;;;;;;;4.85;2.83;;;;;;;;;;5038800;28;20108;-84
2022/05/24 15:17:35;;;;;;;5.78;2.55;;;;;;;;;;5055121;28;20064;-85
2022/05/24 15:20:09;;;;;;;4.07;2.90;;;;;;;;;;5055298;28;20373;-88
2022/05/24 15:22:37;;;;;;;3.65;2.28;;;;;;;;;;5038742;28;20044;-87
2022/05/24 15:25:04;;;;;;;2.55;1.95;;;;;;;;;;5038682;28;20048;-86
2022/05/24 15:27:30;;;;;;;4.32;2.28;;;;;;;;;;5054921;28;20040;-83
2022/05/24 15:29:56;;;;;;;2.63;2.20;;;;;;;;;;5038467;28;20506;-85
2022/05/24 15:32:22;;;;;;;2.42;2.15;;;;;;;;;;5038140;28;20040;-84
2022/05/24 15:34:48;;;;;;;3.95;2.40;;;;;;;;;;5038229;28;20403;-85
2022/05/24 15:37:14;;;;;;;4.97;2.80;;;;;;;;;;5038087;28;20036;-87
2022/05/24 15:39:41;;;;;;;3.05;2.63;;;;;;;;;;5037910;28;20045;-85
2022/05/24 15:42:10;;;;;;;4.40;2.78;;;;;;;;;;5039024;28;20517;-87
2022/05/24 15:44:37;;;;;;;3.50;2.50;;;;;;;;;;5039503;28;20041;-85
2022/05/24 15:47:06;;;;;;;4.28;2.65;;;;;;;;;;5039012;28;20040;-88